Time;durP1;ratioP1;P1;durP2;ratioP2;P2;SDS_P1;SDS_P2;PMS_P1;PMS_P2;Temp;Humidity;BMP_temperature;BMP_pressure;BME280_temperature;BME280_humidity;BME280_pressure;Samples;Min_cycle;Max_cycle;Signal;HPM_P1;HPM_P2
2022/07/27 00:01:59;;;;;;;2.83;2.10;;;20.70;57.10;;;;;;5018681;28;20193;-52
2022/07/27 00:04:25;;;;;;;2.40;2.20;;;20.70;57.20;;;;;;5017497;28;20190;-49
2022/07/27 00:06:51;;;;;;;2.87;2.57;;;20.70;57.20;;;;;;5017884;28;20184;-50
2022/07/27 00:09:18;;;;;;;4.70;2.40;;;20.60;57.30;;;;;;5017848;28;20226;-48
2022/07/27 00:11:44;;;;;;;4.70;2.60;;;20.50;57.80;;;;;;5017450;28;20180;-48
2022/07/27 00:14:10;;;;;;;4.40;3.27;;;20.50;58.00;;;;;;5017590;28;20432;-49
2022/07/27 00:16:36;;;;;;;2.70;2.40;;;20.60;58.30;;;;;;5015903;28;20846;-49
2022/07/27 00:19:02;;;;;;;4.00;2.70;;;20.70;58.20;;;;;;5015027;28;20222;-49
2022/07/27 00:21:28;;;;;;;3.30;3.00;;;20.70;58.10;;;;;;5013861;28;20915;-48
2022/07/27 00:23:54;;;;;;;4.40;2.80;;;20.70;58.10;;;;;;5015015;28;20712;-47
2022/07/27 00:26:20;;;;;;;3.40;2.80;;;20.60;58.30;;;;;;5015714;28;20277;-52
2022/07/27 00:28:45;;;;;;;3.53;2.87;;;20.70;58.60;;;;;;5015239;28;20465;-50
2022/07/27 00:31:11;;;;;;;4.13;2.93;;;20.70;58.70;;;;;;5015807;28;20225;-51
2022/07/27 00:33:36;;;;;;;3.40;2.37;;;20.60;58.80;;;;;;5016088;28;20177;-48
2022/07/27 00:36:02;;;;;;;2.80;2.50;;;20.70;59.20;;;;;;5019777;28;20185;-46
2022/07/27 00:38:28;;;;;;;5.10;2.77;;;20.70;59.10;;;;;;5021258;28;20202;-47
2022/07/27 00:40:54;;;;;;;3.63;3.33;;;20.70;59.00;;;;;;5020694;28;20931;-48
2022/07/27 00:43:20;;;;;;;3.50;3.10;;;20.70;59.10;;;;;;5021119;28;20183;-49
2022/07/27 00:45:45;;;;;;;3.37;2.90;;;20.70;59.30;;;;;;5020823;28;20508;-47
2022/07/27 00:48:11;;;;;;;4.10;3.33;;;20.70;59.40;;;;;;5020810;28;20564;-47
2022/07/27 00:50:40;;;;;;;5.70;2.90;;;20.70;59.30;;;;;;5021132;28;20182;-47
2022/07/27 00:53:07;;;;;;;3.03;2.73;;;20.70;59.60;;;;;;5020802;28;20186;-48
2022/07/27 00:55:33;;;;;;;3.57;3.27;;;20.70;59.70;;;;;;5019885;28;20418;-49
2022/07/27 00:57:59;;;;;;;4.30;3.47;;;20.80;59.70;;;;;;5020403;28;20451;-48
2022/07/27 01:00:26;;;;;;;3.57;3.27;;;20.80;59.70;;;;;;5020034;28;20545;-48
2022/07/27 01:02:52;;;;;;;4.03;3.10;;;20.80;59.70;;;;;;5020258;28;20520;-48
2022/07/27 01:05:18;;;;;;;4.10;3.20;;;20.80;59.90;;;;;;5020719;28;20419;-48
2022/07/27 01:11:05;;;;;;;3.50;3.17;;;20.90;59.80;;;;;;5020259;28;20224;-49
2022/07/27 01:13:31;;;;;;;3.80;3.30;;;20.90;59.80;;;;;;5020805;28;20450;-49
2022/07/27 01:15:58;;;;;;;3.60;3.10;;;20.90;59.90;;;;;;5019560;28;20847;-47
2022/07/27 01:18:33;;;;;;;3.07;2.87;;;20.90;60.00;;;;;;5020608;28;20426;-48
2022/07/27 01:21:01;;;;;;;3.93;3.13;;;20.90;60.30;;;;;;5020792;28;20854;-47
2022/07/27 01:23:27;;;;;;;3.43;2.97;;;20.90;60.60;;;;;;5019978;28;20695;-49
2022/07/27 01:25:53;;;;;;;3.80;3.07;;;20.90;60.40;;;;;;5020568;28;20441;-48
2022/07/27 01:28:19;;;;;;;3.73;3.37;;;20.90;60.70;;;;;;5037924;28;20476;-49
2022/07/27 01:30:45;;;;;;;3.27;2.97;;;20.90;60.70;;;;;;5031159;28;20424;-48
2022/07/27 01:33:11;;;;;;;2.90;2.60;;;20.80;60.90;;;;;;5020362;28;20434;-46
2022/07/27 01:35:37;;;;;;;2.90;2.60;;;20.70;61.20;;;;;;5020354;28;20193;-48
2022/07/27 01:38:04;;;;;;;4.33;3.20;;;20.70;61.50;;;;;;5021046;28;20182;-49
2022/07/27 01:40:30;;;;;;;3.87;2.90;;;20.60;61.80;;;;;;5035155;28;20725;-51
2022/07/27 01:42:55;;;;;;;3.90;3.43;;;20.50;62.00;;;;;;5022203;28;20461;-51
2022/07/27 01:45:21;;;;;;;4.10;3.57;;;20.50;62.70;;;;;;5019865;28;20421;-46
2022/07/27 01:47:47;;;;;;;3.90;3.03;;;20.50;63.00;;;;;;5018711;28;20243;-48
2022/07/27 01:50:13;;;;;;;3.90;3.50;;;20.40;62.90;;;;;;5019688;28;20177;-48
2022/07/27 01:52:39;;;;;;;3.30;3.00;;;20.30;63.60;;;;;;5019528;28;20827;-47
2022/07/27 01:55:07;;;;;;;4.17;3.30;;;20.40;63.80;;;;;;5019725;28;20506;-46
2022/07/27 01:57:32;;;;;;;4.80;3.63;;;20.30;63.50;;;;;;5018932;28;20527;-51
2022/07/27 01:59:59;;;;;;;3.67;3.20;;;20.30;63.90;;;;;;5019445;28;20528;-49
2022/07/27 02:02:24;;;;;;;3.70;3.40;;;20.30;64.10;;;;;;5019187;28;20553;-49
2022/07/27 02:04:50;;;;;;;3.73;3.40;;;20.40;64.50;;;;;;5019157;28;20484;-49
2022/07/27 02:07:15;;;;;;;4.23;3.83;;;20.40;64.40;;;;;;5019783;28;20637;-47
2022/07/27 02:09:41;;;;;;;3.83;3.47;;;20.50;64.40;;;;;;5019355;28;20210;-50
2022/07/27 02:14:51;;;;;;;3.43;3.13;;;20.50;65.00;;;;;;5018801;28;20594;-49
2022/07/27 02:17:17;;;;;;;6.00;3.23;;;20.40;64.90;;;;;;5019222;28;20435;-47
2022/07/27 02:19:42;;;;;;;5.87;4.97;;;20.40;65.20;;;;;;5018712;28;20184;-50
2022/07/27 02:22:08;;;;;;;4.50;3.80;;;20.30;66.40;;;;;;5018041;28;20184;-48
2022/07/27 02:24:36;;;;;;;5.50;3.47;;;20.30;66.20;;;;;;5018713;28;20179;-50
2022/07/27 02:27:02;;;;;;;3.87;3.40;;;20.30;66.40;;;;;;5019211;28;20187;-48
2022/07/27 02:29:29;;;;;;;3.63;3.33;;;20.30;66.70;;;;;;5018873;28;20519;-51
2022/07/27 02:31:55;;;;;;;7.80;3.47;;;20.20;66.90;;;;;;5018625;28;20493;-46
2022/07/27 02:34:21;;;;;;;3.37;3.07;;;20.20;67.60;;;;;;5018653;28;20420;-47
2022/07/27 02:36:46;;;;;;;5.93;3.90;;;20.20;67.90;;;;;;5019446;28;20449;-49
2022/07/27 02:39:12;;;;;;;3.47;3.17;;;20.20;68.00;;;;;;5018774;28;20181;-48
2022/07/27 02:41:37;;;;;;;5.63;4.17;;;20.20;68.10;;;;;;5018540;28;20491;-50
2022/07/27 02:44:03;;;;;;;3.50;3.07;;;20.20;68.40;;;;;;5018647;28;20465;-47
2022/07/27 02:46:29;;;;;;;3.87;3.50;;;20.20;68.60;;;;;;5018459;28;20440;-51
2022/07/27 02:48:55;;;;;;;3.87;3.57;;;20.30;68.50;;;;;;5017946;28;20576;-49
2022/07/27 02:51:20;;;;;;;4.90;4.37;;;20.30;68.20;;;;;;5018075;28;20184;-48
2022/07/27 02:53:46;;;;;;;6.20;3.47;;;20.30;68.60;;;;;;5017748;28;20189;-50
2022/07/27 02:56:11;;;;;;;4.30;3.90;;;20.20;68.90;;;;;;5011064;28;20575;-48
2022/07/27 02:58:38;;;;;;;3.33;3.03;;;20.20;69.10;;;;;;5027430;28;20276;-49
2022/07/27 03:01:05;;;;;;;4.90;4.33;;;20.10;69.80;;;;;;5019028;28;20629;-46
2022/07/27 03:03:30;;;;;;;4.90;4.00;;;20.10;69.80;;;;;;5021967;28;20439;-50
2022/07/27 03:05:56;;;;;;;6.57;4.30;;;20.10;70.30;;;;;;5035301;28;20924;-51
2022/07/27 03:08:22;;;;;;;4.07;3.50;;;20.10;70.60;;;;;;5036211;28;20210;-47
2022/07/27 03:10:47;;;;;;;3.47;3.17;;;20.20;71.00;;;;;;5034779;28;20189;-50
2022/07/27 03:13:13;;;;;;;4.23;3.67;;;20.10;70.40;;;;;;5033806;28;20262;-47
2022/07/27 03:15:39;;;;;;;3.90;3.60;;;20.10;70.80;;;;;;5034706;28;20236;-46
2022/07/27 03:18:05;;;;;;;3.57;3.27;;;20.20;71.20;;;;;;5034793;28;20181;-46
2022/07/27 03:20:30;;;;;;;4.07;3.73;;;20.10;71.00;;;;;;5035295;28;20489;-46
2022/07/27 03:22:56;;;;;;;4.83;3.70;;;20.20;71.20;;;;;;5034779;28;20545;-48
2022/07/27 03:25:22;;;;;;;4.40;4.00;;;20.20;71.20;;;;;;5035731;28;20177;-48
2022/07/27 03:27:47;;;;;;;3.73;3.40;;;20.10;71.50;;;;;;5034919;28;20213;-50
2022/07/27 03:30:13;;;;;;;4.13;3.73;;;20.10;72.00;;;;;;5035012;28;20425;-49
2022/07/27 03:32:39;;;;;;;5.77;4.20;;;20.10;72.50;;;;;;5035983;28;20236;-51
2022/07/27 03:35:05;;;;;;;4.13;3.80;;;20.00;72.40;;;;;;5036873;28;20208;-49
2022/07/27 03:37:31;;;;;;;4.40;4.10;;;20.00;72.90;;;;;;5037220;28;20697;-48
2022/07/27 03:39:57;;;;;;;4.70;4.23;;;19.90;73.40;;;;;;5035870;28;20413;-52
2022/07/27 03:42:22;;;;;;;6.50;4.40;;;19.80;73.70;;;;;;5036159;28;20331;-49
2022/07/27 03:44:48;;;;;;;4.63;4.30;;;19.80;74.40;;;;;;5036200;28;20577;-49
2022/07/27 03:47:14;;;;;;;4.70;4.30;;;19.80;74.80;;;;;;5036680;28;20185;-48
2022/07/27 03:49:39;;;;;;;5.83;4.03;;;19.70;75.10;;;;;;5036888;28;20214;-48
2022/07/27 03:52:05;;;;;;;4.90;4.43;;;19.70;75.80;;;;;;5034809;28;20181;-48
2022/07/27 03:54:31;;;;;;;4.93;4.40;;;19.70;76.10;;;;;;5033879;28;21210;-50
2022/07/27 03:56:56;;;;;;;4.70;3.83;;;19.70;76.40;;;;;;5035591;28;20229;-48
2022/07/27 03:59:22;;;;;;;5.30;4.30;;;19.80;76.60;;;;;;5035644;28;20251;-49
2022/07/27 04:01:48;;;;;;;4.00;3.70;;;19.70;76.80;;;;;;5024686;28;20655;-49
2022/07/27 04:04:13;;;;;;;4.70;4.20;;;19.80;77.30;;;;;;5015446;28;20196;-49
2022/07/27 04:06:39;;;;;;;5.10;4.23;;;19.70;77.40;;;;;;5016142;28;20587;-50
2022/07/27 04:09:05;;;;;;;4.40;4.00;;;19.80;77.80;;;;;;5016991;28;20229;-46
2022/07/27 04:11:30;;;;;;;5.07;4.53;;;19.70;78.00;;;;;;5019216;28;20194;-48
2022/07/27 04:13:56;;;;;;;4.93;4.20;;;19.70;78.40;;;;;;5020513;28;20199;-50
2022/07/27 04:16:22;;;;;;;5.37;4.57;;;19.70;78.60;;;;;;5019855;28;20596;-47
2022/07/27 04:18:48;;;;;;;6.70;3.80;;;19.70;78.90;;;;;;5020707;28;20425;-47
2022/07/27 04:21:14;;;;;;;4.73;4.33;;;19.70;79.20;;;;;;5019446;28;20201;-50
2022/07/27 04:23:41;;;;;;;4.47;4.07;;;19.80;79.30;;;;;;5019899;28;20822;-51
2022/07/27 04:26:06;;;;;;;4.40;4.00;;;19.80;79.50;;;;;;5019995;28;20444;-52
2022/07/27 04:28:32;;;;;;;4.47;4.07;;;19.90;79.60;;;;;;5020395;28;20472;-52
2022/07/27 04:30:58;;;;;;;4.67;3.87;;;20.00;79.40;;;;;;5019050;28;20490;-55
2022/07/27 04:33:23;;;;;;;6.33;4.67;;;20.00;79.40;;;;;;5020460;28;20571;-56
2022/07/27 04:35:49;;;;;;;5.13;4.70;;;20.10;79.10;;;;;;5018769;28;20191;-56
2022/07/27 04:38:14;;;;;;;5.10;4.63;;;20.10;78.90;;;;;;5018421;28;20206;-58
2022/07/27 04:40:40;;;;;;;4.87;4.47;;;20.10;78.90;;;;;;5018933;28;20276;-53
2022/07/27 04:43:06;;;;;;;5.33;4.80;;;20.10;79.20;;;;;;5019272;28;20193;-57
2022/07/27 04:45:31;;;;;;;4.10;3.80;;;20.20;79.10;;;;;;5019489;28;20468;-57
2022/07/27 04:47:57;;;;;;;4.23;3.93;;;20.20;79.30;;;;;;5017631;28;20215;-58
2022/07/27 04:50:23;;;;;;;5.57;5.17;;;20.20;79.30;;;;;;5018950;28;20193;-57
2022/07/27 04:52:49;;;;;;;5.47;4.73;;;20.20;79.40;;;;;;5018756;28;20195;-57
2022/07/27 04:55:14;;;;;;;5.47;4.90;;;20.10;79.50;;;;;;5018300;28;20187;-57
2022/07/27 04:57:40;;;;;;;5.80;4.93;;;20.10;79.90;;;;;;5016122;28;20496;-56
2022/07/27 05:00:07;;;;;;;4.87;4.37;;;20.10;80.40;;;;;;5016253;28;20177;-56
2022/07/27 05:02:33;;;;;;;5.07;4.57;;;20.00;80.60;;;;;;5016726;28;20447;-58
2022/07/27 05:04:59;;;;;;;5.23;4.13;;;20.00;80.70;;;;;;5014944;28;20422;-56
2022/07/27 05:07:24;;;;;;;5.00;4.67;;;20.10;80.90;;;;;;5014246;28;20202;-57
2022/07/27 05:09:50;;;;;;;5.70;4.70;;;20.10;80.70;;;;;;5012851;28;20914;-57
2022/07/27 05:12:16;;;;;;;5.30;4.80;;;20.10;80.90;;;;;;5011324;28;20194;-59
2022/07/27 05:14:41;;;;;;;5.30;4.90;;;20.10;81.10;;;;;;5012007;28;20178;-58
2022/07/27 05:17:07;;;;;;;4.67;4.27;;;20.20;81.10;;;;;;5010336;28;20178;-56
2022/07/27 05:19:32;;;;;;;5.10;4.67;;;20.20;81.00;;;;;;5009789;28;20655;-60
2022/07/27 05:21:59;;;;;;;4.27;3.97;;;20.30;81.10;;;;;;5008874;28;20616;-57
2022/07/27 05:24:25;;;;;;;6.50;5.20;;;20.30;80.90;;;;;;5011481;28;20182;-58
2022/07/27 05:26:51;;;;;;;5.27;4.77;;;20.30;81.20;;;;;;5012819;28;20515;-55
2022/07/27 05:29:16;;;;;;;5.10;4.70;;;20.20;81.70;;;;;;5012908;28;20751;-56
2022/07/27 05:31:42;;;;;;;5.07;4.67;;;20.20;81.40;;;;;;5013047;28;20684;-56
2022/07/27 05:34:07;;;;;;;5.90;5.30;;;20.20;81.40;;;;;;5012814;28;20195;-57
2022/07/27 05:36:33;;;;;;;5.00;4.60;;;20.30;81.40;;;;;;5013907;28;20543;-56
2022/07/27 05:38:59;;;;;;;5.20;4.70;;;20.40;81.50;;;;;;5014473;28;20184;-58
2022/07/27 05:41:25;;;;;;;6.47;5.53;;;20.40;81.40;;;;;;5014691;28;20198;-57
2022/07/27 05:43:53;;;;;;;5.50;4.87;;;20.60;80.90;;;;;;5014335;28;20190;-57
2022/07/27 05:46:19;;;;;;;5.40;4.90;;;20.60;80.60;;;;;;5013147;28;20430;-57
2022/07/27 05:48:44;;;;;;;7.10;4.43;;;20.50;80.80;;;;;;5011997;28;20633;-57
2022/07/27 05:51:10;;;;;;;5.70;4.70;;;20.50;80.90;;;;;;5014470;28;20210;-55
2022/07/27 05:53:36;;;;;;;5.73;5.23;;;20.60;80.90;;;;;;5013625;28;20274;-57
2022/07/27 05:56:02;;;;;;;4.77;4.27;;;20.60;80.80;;;;;;5013697;28;20424;-55
2022/07/27 05:58:28;;;;;;;4.73;4.33;;;20.70;80.50;;;;;;5013416;28;20588;-56
2022/07/27 06:00:55;;;;;;;4.30;4.00;;;20.70;80.40;;;;;;5013886;28;20190;-53
2022/07/27 06:03:21;;;;;;;5.37;4.87;;;20.70;80.40;;;;;;5011336;28;20715;-55
2022/07/27 06:05:47;;;;;;;5.73;5.23;;;20.70;80.60;;;;;;5011246;28;20465;-55
2022/07/27 06:08:14;;;;;;;4.97;4.57;;;20.60;80.40;;;;;;5010163;28;21046;-55
2022/07/27 06:10:40;;;;;;;5.70;4.67;;;20.60;80.40;;;;;;5010690;28;20468;-54
2022/07/27 06:13:08;;;;;;;5.30;4.80;;;20.70;80.60;;;;;;5011417;28;20410;-55
2022/07/27 06:15:35;;;;;;;5.80;5.30;;;20.80;80.50;;;;;;5011489;28;20278;-55
2022/07/27 06:18:02;;;;;;;5.20;4.77;;;20.90;80.30;;;;;;5013741;28;20425;-55
2022/07/27 06:20:28;;;;;;;5.57;5.07;;;21.00;80.20;;;;;;5014316;28;20455;-56
2022/07/27 06:22:56;;;;;;;6.20;5.60;;;21.20;79.60;;;;;;5016335;28;20426;-55
2022/07/27 06:25:23;;;;;;;5.40;5.00;;;21.30;79.10;;;;;;5015507;28;20473;-56
2022/07/27 06:27:49;;;;;;;5.57;4.90;;;21.30;78.80;;;;;;5014084;28;20425;-57
2022/07/27 06:30:17;;;;;;;6.07;4.30;;;21.30;79.10;;;;;;5011961;28;20450;-56
2022/07/27 06:32:43;;;;;;;5.20;4.80;;;21.30;79.00;;;;;;5013148;28;20545;-55
2022/07/27 06:35:09;;;;;;;6.57;4.67;;;21.50;78.80;;;;;;5014896;28;20431;-57
2022/07/27 06:37:35;;;;;;;5.10;4.70;;;21.60;78.30;;;;;;5015760;28;20825;-56
2022/07/27 06:40:02;;;;;;;5.60;5.20;;;21.80;78.00;;;;;;5015202;28;20429;-56
2022/07/27 06:42:28;;;;;;;5.60;4.27;;;21.80;77.50;;;;;;5012957;28;20431;-57
2022/07/27 06:44:55;;;;;;;5.23;4.73;;;21.90;78.30;;;;;;5013787;28;20428;-57
2022/07/27 06:47:21;;;;;;;4.87;4.47;;;21.90;77.90;;;;;;5013339;28;20521;-57
2022/07/27 06:49:47;;;;;;;5.87;5.37;;;22.00;77.50;;;;;;5014355;28;20485;-57
2022/07/27 06:52:12;;;;;;;5.17;4.77;;;22.20;77.20;;;;;;5016142;28;20424;-58
2022/07/27 06:54:38;;;;;;;6.77;5.33;;;22.30;76.20;;;;;;5016665;28;20535;-57
2022/07/27 06:57:04;;;;;;;4.00;3.70;;;22.40;76.60;;;;;;5016456;28;20281;-58
2022/07/27 06:59:31;;;;;;;5.10;4.50;;;22.50;75.80;;;;;;5013093;28;20288;-55
2022/07/27 07:01:57;;;;;;;6.00;5.40;;;22.70;75.40;;;;;;5015680;28;20697;-58
2022/07/27 07:04:23;;;;;;;18.67;8.37;;;22.90;74.80;;;;;;5015934;28;20460;-57
2022/07/27 07:06:49;;;;;;;8.70;6.40;;;23.00;74.20;;;;;;5007594;28;20234;-58
2022/07/27 07:09:15;;;;;;;8.53;6.00;;;23.00;74.50;;;;;;5015400;28;20205;-59
2022/07/27 07:11:41;;;;;;;11.97;7.30;;;23.00;73.90;;;;;;5015615;28;20442;-59
2022/07/27 07:14:06;;;;;;;6.30;5.70;;;23.10;73.90;;;;;;5014893;28;20285;-56
2022/07/27 07:16:32;;;;;;;9.60;5.90;;;23.00;72.80;;;;;;5013491;28;20180;-57
2022/07/27 07:18:58;;;;;;;10.00;5.90;;;23.00;73.40;;;;;;5014258;28;20179;-57
2022/07/27 07:21:23;;;;;;;6.83;5.83;;;23.10;73.40;;;;;;5015888;28;20432;-57
2022/07/27 07:23:50;;;;;;;6.00;5.43;;;23.20;73.00;;;;;;5014779;28;20580;-58
2022/07/27 07:26:15;;;;;;;5.30;4.50;;;23.40;72.60;;;;;;5014494;28;20748;-57
2022/07/27 07:28:41;;;;;;;6.23;5.70;;;23.60;72.40;;;;;;5014670;28;20558;-57
2022/07/27 07:31:08;;;;;;;6.07;5.47;;;23.70;71.20;;;;;;5010758;28;20312;-58
2022/07/27 07:33:33;;;;;;;5.73;4.77;;;23.70;70.80;;;;;;5010260;28;20178;-57
2022/07/27 07:35:59;;;;;;;5.53;5.03;;;23.70;71.10;;;;;;5011566;28;20434;-57
2022/07/27 07:38:24;;;;;;;5.23;4.73;;;23.70;71.30;;;;;;4997330;28;20186;-57
2022/07/27 07:40:50;;;;;;;5.10;4.70;;;23.70;71.10;;;;;;4994061;28;20248;-58
2022/07/27 07:43:16;;;;;;;5.47;4.97;;;23.90;71.00;;;;;;4992100;28;20575;-57
2022/07/27 07:45:42;;;;;;;5.70;5.30;;;24.10;70.40;;;;;;5007304;28;20261;-56
2022/07/27 07:48:10;;;;;;;5.40;4.90;;;24.30;69.30;;;;;;5011843;28;20478;-58
2022/07/27 07:50:36;;;;;;;5.23;4.73;;;24.40;68.70;;;;;;5013270;28;20702;-58
2022/07/27 07:53:01;;;;;;;6.67;5.20;;;24.40;68.90;;;;;;5011817;28;20483;-56
2022/07/27 07:55:28;;;;;;;7.13;4.93;;;24.40;68.50;;;;;;5010494;28;20503;-57
2022/07/27 07:57:54;;;;;;;7.50;4.80;;;24.30;68.50;;;;;;5009563;28;20176;-58
2022/07/27 08:00:20;;;;;;;6.33;4.37;;;24.30;69.00;;;;;;5009889;28;20430;-56
2022/07/27 08:02:48;;;;;;;5.70;4.67;;;24.30;69.20;;;;;;5010987;28;20400;-56
2022/07/27 08:05:14;;;;;;;5.40;4.70;;;24.40;68.90;;;;;;5010277;28;20524;-58
2022/07/27 08:07:41;;;;;;;5.30;4.90;;;24.50;68.40;;;;;;5012091;28;20869;-57
2022/07/27 08:10:08;;;;;;;6.20;4.77;;;24.60;67.20;;;;;;5011006;28;20462;-58
2022/07/27 08:12:34;;;;;;;5.27;4.87;;;24.70;68.10;;;;;;5012954;28;20886;-57
2022/07/27 08:15:00;;;;;;;4.57;4.20;;;24.70;67.80;;;;;;5012809;28;20579;-57
2022/07/27 08:17:26;;;;;;;6.17;5.57;;;24.90;67.50;;;;;;5013521;28;20525;-56
2022/07/27 08:19:51;;;;;;;7.63;4.90;;;25.00;66.90;;;;;;5012777;28;20269;-55
2022/07/27 08:22:17;;;;;;;5.37;4.80;;;25.10;66.20;;;;;;5012275;28;20182;-57
2022/07/27 08:24:43;;;;;;;5.10;4.70;;;25.10;66.30;;;;;;5011969;28;20222;-56
2022/07/27 08:27:09;;;;;;;5.37;4.97;;;25.10;65.40;;;;;;5013651;28;20430;-57
2022/07/27 08:29:34;;;;;;;4.80;4.50;;;25.30;65.30;;;;;;5014774;28;20225;-56
2022/07/27 08:32:00;;;;;;;4.83;4.43;;;25.40;64.30;;;;;;5012545;28;20235;-57
2022/07/27 08:34:26;;;;;;;5.07;4.60;;;25.50;64.30;;;;;;5013442;28;20197;-56
2022/07/27 08:36:51;;;;;;;5.90;5.40;;;25.70;63.40;;;;;;5014394;28;20176;-58
2022/07/27 08:39:17;;;;;;;5.57;5.00;;;25.80;62.10;;;;;;5013465;28;20366;-57
2022/07/27 08:41:44;;;;;;;5.23;4.83;;;25.70;62.50;;;;;;5013124;28;20222;-58
2022/07/27 08:44:12;;;;;;;5.60;5.00;;;25.70;62.90;;;;;;5012026;28;20440;-58
2022/07/27 08:46:39;;;;;;;8.23;6.77;;;25.90;62.50;;;;;;5012246;28;20616;-57
2022/07/27 08:49:06;;;;;;;6.00;5.40;;;25.90;62.00;;;;;;5014375;28;20883;-58
2022/07/27 08:51:32;;;;;;;5.50;5.00;;;25.90;62.60;;;;;;5014016;28;20488;-57
2022/07/27 08:53:59;;;;;;;5.27;4.77;;;26.10;62.90;;;;;;5015511;28;20441;-57
2022/07/27 08:56:25;;;;;;;5.20;4.80;;;26.30;61.90;;;;;;5015333;28;20250;-56
2022/07/27 08:58:51;;;;;;;5.97;5.53;;;26.70;60.30;;;;;;5019111;28;20946;-55
2022/07/27 09:01:16;;;;;;;6.27;5.67;;;27.20;59.20;;;;;;5019484;28;20513;-55
2022/07/27 09:03:42;;;;;;;5.57;5.17;;;27.60;59.80;;;;;;5015532;28;20783;-58
2022/07/27 09:06:07;;;;;;;5.77;5.27;;;27.70;57.60;;;;;;5017874;28;20481;-56
2022/07/27 09:08:35;;;;;;;5.47;4.97;;;27.90;57.40;;;;;;5017275;28;20218;-57
2022/07/27 09:11:12;;;;;;;6.20;5.60;;;27.80;57.10;;;;;;5018229;28;20195;-59
2022/07/27 09:13:38;;;;;;;6.57;5.97;;;27.80;56.70;;;;;;5015068;28;20473;-58
2022/07/27 09:16:06;;;;;;;6.23;5.70;;;27.20;56.30;;;;;;5014447;28;20496;-57
2022/07/27 09:18:34;;;;;;;5.67;5.17;;;27.10;57.30;;;;;;5014351;28;20183;-58
2022/07/27 09:21:19;;;;;;;5.60;5.07;;;27.10;57.10;;;;;;5014785;28;20704;-57
2022/07/27 09:24:04;;;;;;;6.00;5.40;;;27.20;57.00;;;;;;5014074;28;20797;-57
2022/07/27 09:26:30;;;;;;;5.20;4.80;;;27.40;57.20;;;;;;5015242;28;20434;-59
2022/07/27 09:29:10;;;;;;;4.90;4.50;;;27.50;56.10;;;;;;5015975;28;20440;-59
2022/07/27 09:31:40;;;;;;;5.37;4.97;;;27.80;56.60;;;;;;5015730;28;20894;-59
2022/07/27 09:34:06;;;;;;;6.00;5.50;;;27.90;55.30;;;;;;5014418;28;20530;-56
2022/07/27 09:36:31;;;;;;;7.07;5.50;;;27.70;55.70;;;;;;5013582;28;20533;-56
2022/07/27 09:39:06;;;;;;;8.47;5.70;;;27.70;55.90;;;;;;5014132;28;20214;-57
2022/07/27 09:41:43;;;;;;;6.17;5.57;;;27.70;56.20;;;;;;5014745;28;20198;-60
2022/07/27 09:44:10;;;;;;;5.60;5.07;;;27.80;56.40;;;;;;5014810;28;21063;-57
2022/07/27 09:46:41;;;;;;;4.83;4.47;;;28.00;55.40;;;;;;5014526;28;20705;-44
2022/07/27 09:49:32;;;;;;;6.20;5.50;;;27.90;55.20;;;;;;5012644;28;20531;-58
2022/07/27 09:52:02;;;;;;;5.70;5.20;;;27.80;55.30;;;;;;5014758;28;20835;-56
2022/07/27 09:54:42;;;;;;;6.33;5.87;;;27.60;55.40;;;;;;5015010;28;20438;-59
2022/07/27 09:57:08;;;;;;;5.83;5.33;;;27.60;55.50;;;;;;5016862;28;20516;-57
2022/07/27 09:59:34;;;;;;;4.77;4.37;;;27.60;55.90;;;;;;5015148;28;20949;-57
2022/07/27 10:02:00;;;;;;;5.97;5.47;;;27.90;56.10;;;;;;5017391;28;20423;-58
2022/07/27 10:04:26;;;;;;;6.80;5.73;;;28.30;55.30;;;;;;5016842;28;20186;-58
2022/07/27 10:06:52;;;;;;;5.90;5.47;;;28.60;55.60;;;;;;5016171;28;20172;-59
2022/07/27 10:09:18;;;;;;;6.43;5.40;;;28.70;54.30;;;;;;5016481;28;20249;-60
2022/07/27 10:11:46;;;;;;;5.03;4.53;;;28.70;54.30;;;;;;5017724;28;20415;-59
2022/07/27 10:14:12;;;;;;;6.60;6.00;;;28.60;54.60;;;;;;5016437;28;20537;-58
2022/07/27 10:16:39;;;;;;;6.70;5.10;;;28.50;53.50;;;;;;5017324;28;20476;-58
2022/07/27 10:19:04;;;;;;;5.77;5.20;;;28.70;52.40;;;;;;5015846;28;20180;-60
2022/07/27 10:21:32;;;;;;;5.77;5.27;;;28.80;51.70;;;;;;5016728;28;20425;-59
2022/07/27 10:24:00;;;;;;;5.50;5.10;;;28.70;52.40;;;;;;5015342;28;20515;-54
2022/07/27 10:26:30;;;;;;;5.80;4.67;;;28.80;52.20;;;;;;4999565;28;20425;-54
2022/07/27 10:28:58;;;;;;;5.67;5.10;;;29.20;52.80;;;;;;5017233;28;20473;-61
2022/07/27 10:31:27;;;;;;;5.93;5.40;;;29.90;51.70;;;;;;5017396;28;20545;-62
2022/07/27 10:33:58;;;;;;;5.10;4.63;;;30.20;50.30;;;;;;5014057;28;20408;-59
2022/07/27 10:36:24;;;;;;;5.00;4.60;;;30.20;50.00;;;;;;5011562;28;20431;-54
2022/07/27 10:38:55;;;;;;;5.33;4.93;;;30.10;49.70;;;;;;5017508;28;20462;-58
2022/07/27 10:41:33;;;;;;;8.53;5.40;;;29.50;49.40;;;;;;5015466;28;20231;-58
2022/07/27 10:44:14;;;;;;;5.60;5.20;;;29.10;50.00;;;;;;5011365;28;20431;-58
2022/07/27 10:47:00;;;;;;;5.63;5.23;;;28.60;50.20;;;;;;5014490;28;20426;-58
2022/07/27 10:49:28;;;;;;;5.63;5.23;;;28.00;49.80;;;;;;5013862;28;20559;-58
2022/07/27 10:51:56;;;;;;;5.30;4.90;;;28.00;50.00;;;;;;5014403;28;20425;-58
2022/07/27 10:54:34;;;;;;;5.80;4.80;;;27.50;51.20;;;;;;5014580;28;20789;-59
2022/07/27 10:57:03;;;;;;;4.97;4.50;;;28.10;51.70;;;;;;5015297;28;20423;-59
2022/07/27 10:59:48;;;;;;;5.30;4.80;;;28.80;51.30;;;;;;5013599;28;20831;-58
2022/07/27 11:02:17;;;;;;;6.57;5.70;;;29.80;50.40;;;;;;5014794;28;20445;-60
2022/07/27 11:04:52;;;;;;;5.10;4.60;;;30.20;50.00;;;;;;5013468;28;20684;-60
2022/07/27 11:07:23;;;;;;;4.83;4.43;;;30.40;49.10;;;;;;5010904;28;20856;-59
2022/07/27 11:09:51;;;;;;;5.97;3.73;;;31.00;46.80;;;;;;5013905;28;20785;-61
2022/07/27 11:12:17;;;;;;;4.70;4.30;;;30.90;45.40;;;;;;5013794;28;20476;-58
2022/07/27 11:14:45;;;;;;;7.50;3.20;;;30.60;45.30;;;;;;5013221;28;20466;-60
2022/07/27 11:17:11;;;;;;;3.70;3.40;;;30.30;44.60;;;;;;5014821;28;20392;-57
2022/07/27 11:19:37;;;;;;;4.33;4.00;;;30.20;44.50;;;;;;5012289;28;20427;-59
2022/07/27 11:22:02;;;;;;;4.77;3.87;;;30.60;45.20;;;;;;5013024;28;20416;-60
2022/07/27 11:24:28;;;;;;;3.37;3.17;;;31.30;44.10;;;;;;5012986;28;20429;-60
2022/07/27 11:26:54;;;;;;;3.97;3.60;;;31.70;43.90;;;;;;5012668;28;20627;-60
2022/07/27 11:29:23;;;;;;;3.77;3.47;;;31.90;43.40;;;;;;5011564;28;20665;-60
2022/07/27 11:31:53;;;;;;;4.30;3.90;;;32.30;42.70;;;;;;5013189;28;20290;-60
2022/07/27 11:34:27;;;;;;;4.40;4.00;;;32.60;42.30;;;;;;5013179;28;20880;-60
2022/07/27 11:36:53;;;;;;;5.10;4.27;;;32.40;43.20;;;;;;5014604;28;20452;-60
2022/07/27 11:39:25;;;;;;;4.60;4.20;;;32.20;43.40;;;;;;5013132;28;20436;-60
2022/07/27 11:42:01;;;;;;;4.10;3.80;;;32.10;44.20;;;;;;5015125;28;20498;-60
2022/07/27 11:44:27;;;;;;;7.67;4.17;;;32.80;43.20;;;;;;5012278;28;20424;-60
2022/07/27 11:46:54;;;;;;;4.50;4.10;;;33.10;42.10;;;;;;5013394;28;20465;-61
2022/07/27 11:49:28;;;;;;;3.93;3.63;;;33.40;41.50;;;;;;5016287;28;20483;-60
2022/07/27 11:51:57;;;;;;;3.63;3.33;;;32.90;41.50;;;;;;5015171;28;20429;-60
2022/07/27 11:54:27;;;;;;;3.77;3.47;;;32.50;40.10;;;;;;5012015;28;20414;-57
2022/07/27 11:56:56;;;;;;;4.33;3.90;;;31.90;40.60;;;;;;5014052;28;20512;-60
2022/07/27 11:59:25;;;;;;;3.40;3.10;;;31.60;41.10;;;;;;5013806;28;20720;-60
2022/07/27 12:01:59;;;;;;;4.03;3.53;;;31.80;41.90;;;;;;5014321;28;20474;-59
2022/07/27 12:04:26;;;;;;;3.50;3.20;;;31.80;41.00;;;;;;5013686;28;20419;-60
2022/07/27 12:07:03;;;;;;;3.80;3.50;;;31.80;40.90;;;;;;5012017;28;20444;-59
2022/07/27 12:09:32;;;;;;;4.10;3.80;;;31.50;40.60;;;;;;5012674;28;20558;-58
2022/07/27 12:11:57;;;;;;;4.93;3.53;;;31.20;41.10;;;;;;5012800;28;20417;-59
2022/07/27 12:14:40;;;;;;;4.17;3.50;;;30.70;42.60;;;;;;5012403;28;20766;-58
2022/07/27 12:17:19;;;;;;;4.30;3.90;;;30.50;42.30;;;;;;5009699;28;20611;-60
2022/07/27 12:20:01;;;;;;;3.93;3.63;;;30.20;42.80;;;;;;5008936;28;20411;-59
2022/07/27 12:22:47;;;;;;;3.80;3.50;;;30.00;43.30;;;;;;5011064;28;20480;-59
2022/07/27 12:25:15;;;;;;;3.27;2.97;;;29.70;43.80;;;;;;5012722;28;20705;-55
2022/07/27 12:27:56;;;;;;;3.67;3.37;;;29.40;43.90;;;;;;5011441;28;20811;-59
2022/07/27 12:30:31;;;;;;;4.43;3.23;;;29.00;44.60;;;;;;5012329;28;20976;-58
2022/07/27 12:32:56;;;;;;;4.17;3.83;;;28.70;45.20;;;;;;5017936;28;20594;-59
2022/07/27 12:35:22;;;;;;;6.10;3.60;;;28.40;45.60;;;;;;5015542;28;20491;-59
2022/07/27 12:37:59;;;;;;;3.83;3.53;;;28.50;45.70;;;;;;5017347;28;21574;-65
2022/07/27 12:40:25;;;;;;;4.00;3.70;;;29.20;45.30;;;;;;5016890;28;20414;-58
2022/07/27 12:43:13;;;;;;;3.50;3.20;;;30.10;44.70;;;;;;5017186;28;20499;-56
2022/07/27 12:45:39;;;;;;;5.10;3.63;;;31.10;43.20;;;;;;5017412;28;20394;-60
2022/07/27 12:48:19;;;;;;;3.90;3.33;;;31.50;42.30;;;;;;5016274;28;20400;-58
2022/07/27 12:51:06;;;;;;;5.23;3.47;;;31.80;42.10;;;;;;5016605;28;20559;-57
2022/07/27 12:53:35;;;;;;;4.07;3.27;;;32.30;42.00;;;;;;5015234;28;20423;-59